sensor_id;sensor_type;location;lat;lon;timestamp;temperature;humidity
23801;DHT22;12081;48.614;10.226;2023-07-31T05:33:17;12.80;99.90
23801;DHT22;12081;48.614;10.226;2023-07-31T05:36:01;13.00;99.90
23801;DHT22;12081;48.614;10.226;2023-07-31T05:38:45;13.20;99.90
23801;DHT22;12081;48.614;10.226;2023-07-31T05:41:29;13.60;99.90
23801;DHT22;12081;48.614;10.226;2023-07-31T05:44:13;13.40;99.90
23801;DHT22;12081;48.614;10.226;2023-07-31T05:46:57;14.00;99.90
23801;DHT22;12081;48.614;10.226;2023-07-31T05:49:41;13.60;99.90
23801;DHT22;12081;48.614;10.226;2023-07-31T05:52:25;13.70;99.90
23801;DHT22;12081;48.614;10.226;2023-07-31T05:55:12;14.00;99.90
23801;DHT22;12081;48.614;10.226;2023-07-31T05:57:56;14.20;99.90
23801;DHT22;12081;48.614;10.226;2023-07-31T06:00:40;14.30;99.90
23801;DHT22;12081;48.614;10.226;2023-07-31T06:03:25;14.50;99.90
23801;DHT22;12081;48.614;10.226;2023-07-31T06:06:10;14.70;99.90
23801;DHT22;12081;48.614;10.226;2023-07-31T06:08:55;14.90;99.90
23801;DHT22;12081;48.614;10.226;2023-07-31T06:11:40;15.20;99.90
23801;DHT22;12081;48.614;10.226;2023-07-31T06:14:23;15.30;99.90
23801;DHT22;12081;48.614;10.226;2023-07-31T06:17:07;15.50;99.90
23801;DHT22;12081;48.614;10.226;2023-07-31T06:19:52;15.60;99.90
23801;DHT22;12081;48.614;10.226;2023-07-31T06:22:36;15.60;99.90
23801;DHT22;12081;48.614;10.226;2023-07-31T06:25:20;15.80;99.90
23801;DHT22;12081;48.614;10.226;2023-07-31T06:28:05;15.90;99.90
23801;DHT22;12081;48.614;10.226;2023-07-31T06:30:49;16.30;99.90
23801;DHT22;12081;48.614;10.226;2023-07-31T06:33:33;16.10;99.90
23801;DHT22;12081;48.614;10.226;2023-07-31T06:36:17;16.10;99.90
23801;DHT22;12081;48.614;10.226;2023-07-31T06:39:01;16.30;99.90
23801;DHT22;12081;48.614;10.226;2023-07-31T06:41:45;16.40;99.90
23801;DHT22;12081;48.614;10.226;2023-07-31T06:44:29;16.60;99.90
23801;DHT22;12081;48.614;10.226;2023-07-31T06:47:13;16.90;99.90
23801;DHT22;12081;48.614;10.226;2023-07-31T06:49:57;17.00;99.90
23801;DHT22;12081;48.614;10.226;2023-07-31T06:52:41;18.40;99.90
23801;DHT22;12081;48.614;10.226;2023-07-31T06:55:25;17.50;99.90
23801;DHT22;12081;48.614;10.226;2023-07-31T06:58:09;18.00;99.90
23801;DHT22;12081;48.614;10.226;2023-07-31T07:00:54;18.20;99.90
23801;DHT22;12081;48.614;10.226;2023-07-31T07:03:38;18.20;99.90
23801;DHT22;12081;48.614;10.226;2023-07-31T07:06:22;18.50;99.90
23801;DHT22;12081;48.614;10.226;2023-07-31T07:09:08;18.80;99.90
23801;DHT22;12081;48.614;10.226;2023-07-31T07:11:53;19.00;99.90
23801;DHT22;12081;48.614;10.226;2023-07-31T07:14:37;19.30;99.90
23801;DHT22;12081;48.614;10.226;2023-07-31T07:17:21;19.20;99.90
23801;DHT22;12081;48.614;10.226;2023-07-31T07:20:06;19.20;99.90
23801;DHT22;12081;48.614;10.226;2023-07-31T07:22:50;19.00;99.90
23801;DHT22;12081;48.614;10.226;2023-07-31T07:25:37;18.80;99.90
23801;DHT22;12081;48.614;10.226;2023-07-31T07:28:22;18.50;99.90
23801;DHT22;12081;48.614;10.226;2023-07-31T07:31:07;18.40;99.90
23801;DHT22;12081;48.614;10.226;2023-07-31T07:33:51;18.40;99.90
23801;DHT22;12081;48.614;10.226;2023-07-31T07:36:35;18.30;99.90
23801;DHT22;12081;48.614;10.226;2023-07-31T07:39:19;18.30;99.90
23801;DHT22;12081;48.614;10.226;2023-07-31T07:42:04;18.30;99.90
23801;DHT22;12081;48.614;10.226;2023-07-31T07:44:48;18.30;99.90
23801;DHT22;12081;48.614;10.226;2023-07-31T07:47:32;18.40;99.90
23801;DHT22;12081;48.614;10.226;2023-07-31T07:50:16;18.40;99.90
23801;DHT22;12081;48.614;10.226;2023-07-31T07:53:00;18.70;99.90
23801;DHT22;12081;48.614;10.226;2023-07-31T07:55:44;19.10;99.90
23801;DHT22;12081;48.614;10.226;2023-07-31T07:58:28;20.70;99.90
23801;DHT22;12081;48.614;10.226;2023-07-31T08:01:12;20.20;99.90
23801;DHT22;12081;48.614;10.226;2023-07-31T08:03:57;21.30;99.90
23801;DHT22;12081;48.614;10.226;2023-07-31T08:06:41;22.40;99.90
23801;DHT22;12081;48.614;10.226;2023-07-31T08:09:25;23.10;99.90
23801;DHT22;12081;48.614;10.226;2023-07-31T08:12:09;23.60;97.80
23801;DHT22;12081;48.614;10.226;2023-07-31T08:14:53;23.60;95.70
23801;DHT22;12081;48.614;10.226;2023-07-31T08:17:37;23.80;93.50
23801;DHT22;12081;48.614;10.226;2023-07-31T08:20:21;24.50;91.10
23801;DHT22;12081;48.614;10.226;2023-07-31T08:23:05;24.60;87.10
23801;DHT22;12081;48.614;10.226;2023-07-31T08:25:49;24.30;84.40
23801;DHT22;12081;48.614;10.226;2023-07-31T08:28:34;23.30;87.10
23801;DHT22;12081;48.614;10.226;2023-07-31T08:31:20;22.50;89.50
23801;DHT22;12081;48.614;10.226;2023-07-31T08:34:04;21.80;92.00
23801;DHT22;12081;48.614;10.226;2023-07-31T08:36:48;21.40;92.90
23801;DHT22;12081;48.614;10.226;2023-07-31T08:39:32;21.20;94.40
23801;DHT22;12081;48.614;10.226;2023-07-31T08:42:16;21.10;94.60
23801;DHT22;12081;48.614;10.226;2023-07-31T08:45:01;21.50;95.00
23801;DHT22;12081;48.614;10.226;2023-07-31T08:47:51;22.30;93.20
23801;DHT22;12081;48.614;10.226;2023-07-31T08:50:36;23.70;90.60
23801;DHT22;12081;48.614;10.226;2023-07-31T08:53:21;25.20;82.80
23801;DHT22;12081;48.614;10.226;2023-07-31T08:56:06;26.10;76.50
23801;DHT22;12081;48.614;10.226;2023-07-31T08:58:52;26.70;71.30
23801;DHT22;12081;48.614;10.226;2023-07-31T09:01:41;27.10;67.50
23801;DHT22;12081;48.614;10.226;2023-07-31T09:04:27;26.80;65.80
23801;DHT22;12081;48.614;10.226;2023-07-31T09:07:12;26.10;67.20
23801;DHT22;12081;48.614;10.226;2023-07-31T09:09:57;25.60;69.00
23801;DHT22;12081;48.614;10.226;2023-07-31T09:12:42;25.90;69.10
23801;DHT22;12081;48.614;10.226;2023-07-31T09:15:27;25.50;67.80
23801;DHT22;12081;48.614;10.226;2023-07-31T09:18:12;25.40;69.50
23801;DHT22;12081;48.614;10.226;2023-07-31T09:21:05;26.20;68.10
23801;DHT22;12081;48.614;10.226;2023-07-31T09:23:49;26.50;65.70
23801;DHT22;12081;48.614;10.226;2023-07-31T09:26:35;26.20;66.80
23801;DHT22;12081;48.614;10.226;2023-07-31T09:29:20;25.90;65.10
23801;DHT22;12081;48.614;10.226;2023-07-31T09:32:04;25.40;66.10
23801;DHT22;12081;48.614;10.226;2023-07-31T09:34:48;25.30;68.30
23801;DHT22;12081;48.614;10.226;2023-07-31T09:37:33;25.90;65.40
23801;DHT22;12081;48.614;10.226;2023-07-31T09:40:28;26.20;66.30
23801;DHT22;12081;48.614;10.226;2023-07-31T09:43:18;26.00;64.80
23801;DHT22;12081;48.614;10.226;2023-07-31T09:46:02;25.60;63.00
23801;DHT22;12081;48.614;10.226;2023-07-31T09:48:46;25.50;66.70
23801;DHT22;12081;48.614;10.226;2023-07-31T09:51:30;26.00;65.70
23801;DHT22;12081;48.614;10.226;2023-07-31T09:54:16;26.30;63.10
23801;DHT22;12081;48.614;10.226;2023-07-31T09:57:00;26.60;63.30
23801;DHT22;12081;48.614;10.226;2023-07-31T09:59:47;26.90;60.60
23801;DHT22;12081;48.614;10.226;2023-07-31T10:02:32;26.70;60.20
23801;DHT22;12081;48.614;10.226;2023-07-31T10:05:16;26.70;62.50
23801;DHT22;12081;48.614;10.226;2023-07-31T10:08:01;27.20;59.80
23801;DHT22;12081;48.614;10.226;2023-07-31T10:10:45;27.30;58.60
23801;DHT22;12081;48.614;10.226;2023-07-31T10:13:30;27.70;58.20
23801;DHT22;12081;48.614;10.226;2023-07-31T10:16:15;27.80;59.40
23801;DHT22;12081;48.614;10.226;2023-07-31T10:19:00;28.20;57.50
23801;DHT22;12081;48.614;10.226;2023-07-31T10:21:46;28.80;56.10
23801;DHT22;12081;48.614;10.226;2023-07-31T10:24:32;29.30;56.10
23801;DHT22;12081;48.614;10.226;2023-07-31T10:27:16;29.70;56.20
23801;DHT22;12081;48.614;10.226;2023-07-31T10:30:02;30.00;54.30
23801;DHT22;12081;48.614;10.226;2023-07-31T10:32:48;30.00;54.40
23801;DHT22;12081;48.614;10.226;2023-07-31T10:35:34;29.90;53.00
23801;DHT22;12081;48.614;10.226;2023-07-31T10:38:18;29.20;54.20
23801;DHT22;12081;48.614;10.226;2023-07-31T10:41:11;28.60;54.70
23801;DHT22;12081;48.614;10.226;2023-07-31T10:43:58;28.20;55.50
23801;DHT22;12081;48.614;10.226;2023-07-31T10:46:42;28.30;56.40
23801;DHT22;12081;48.614;10.226;2023-07-31T10:49:29;28.50;56.50
23801;DHT22;12081;48.614;10.226;2023-07-31T10:52:20;29.00;54.70
23801;DHT22;12081;48.614;10.226;2023-07-31T10:55:40;29.60;54.90
23801;DHT22;12081;48.614;10.226;2023-07-31T10:58:24;30.60;53.10
23801;DHT22;12081;48.614;10.226;2023-07-31T11:01:09;31.00;51.80
23801;DHT22;12081;48.614;10.226;2023-07-31T11:03:56;31.00;52.00
23801;DHT22;12081;48.614;10.226;2023-07-31T11:06:55;30.50;51.10
23801;DHT22;12081;48.614;10.226;2023-07-31T11:09:39;30.60;52.60
23801;DHT22;12081;48.614;10.226;2023-07-31T11:12:24;31.10;51.80
23801;DHT22;12081;48.614;10.226;2023-07-31T11:15:08;31.90;50.80
23801;DHT22;12081;48.614;10.226;2023-07-31T11:17:56;32.40;52.10
23801;DHT22;12081;48.614;10.226;2023-07-31T11:20:41;32.20;50.50
23801;DHT22;12081;48.614;10.226;2023-07-31T11:23:26;31.10;51.70
23801;DHT22;12081;48.614;10.226;2023-07-31T11:26:10;30.30;52.80
23801;DHT22;12081;48.614;10.226;2023-07-31T11:28:55;29.80;54.30
23801;DHT22;12081;48.614;10.226;2023-07-31T11:31:47;30.20;54.60
23801;DHT22;12081;48.614;10.226;2023-07-31T11:34:33;30.40;52.40
23801;DHT22;12081;48.614;10.226;2023-07-31T11:37:17;30.30;51.80
23801;DHT22;12081;48.614;10.226;2023-07-31T11:40:01;30.40;52.50
23801;DHT22;12081;48.614;10.226;2023-07-31T11:42:46;30.00;53.40
23801;DHT22;12081;48.614;10.226;2023-07-31T11:45:30;29.70;53.30
23801;DHT22;12081;48.614;10.226;2023-07-31T11:48:19;29.20;53.70
23801;DHT22;12081;48.614;10.226;2023-07-31T11:51:10;29.20;53.30
23801;DHT22;12081;48.614;10.226;2023-07-31T11:53:56;29.30;53.60
23801;DHT22;12081;48.614;10.226;2023-07-31T11:56:41;29.20;52.10
23801;DHT22;12081;48.614;10.226;2023-07-31T11:59:28;29.60;52.50
23801;DHT22;12081;48.614;10.226;2023-07-31T12:02:12;30.80;51.30
23801;DHT22;12081;48.614;10.226;2023-07-31T12:04:56;31.60;49.70
23801;DHT22;12081;48.614;10.226;2023-07-31T12:07:54;31.80;50.50
23801;DHT22;12081;48.614;10.226;2023-07-31T12:10:39;31.70;50.10
23801;DHT22;12081;48.614;10.226;2023-07-31T12:13:26;31.50;49.20
23801;DHT22;12081;48.614;10.226;2023-07-31T12:16:10;30.60;50.40
23801;DHT22;12081;48.614;10.226;2023-07-31T12:18:54;30.10;51.30
23801;DHT22;12081;48.614;10.226;2023-07-31T12:21:38;29.60;51.90
23801;DHT22;12081;48.614;10.226;2023-07-31T12:24:23;29.00;52.80
23801;DHT22;12081;48.614;10.226;2023-07-31T12:27:12;29.20;53.00
23801;DHT22;12081;48.614;10.226;2023-07-31T12:29:57;29.30;52.40
23801;DHT22;12081;48.614;10.226;2023-07-31T12:32:41;29.30;53.70
23801;DHT22;12081;48.614;10.226;2023-07-31T12:35:35;29.20;53.10
23801;DHT22;12081;48.614;10.226;2023-07-31T12:38:20;29.20;53.60
23801;DHT22;12081;48.614;10.226;2023-07-31T12:41:04;29.00;54.80
23801;DHT22;12081;48.614;10.226;2023-07-31T12:43:50;29.10;54.40
23801;DHT22;12081;48.614;10.226;2023-07-31T12:46:34;29.50;54.50
23801;DHT22;12081;48.614;10.226;2023-07-31T12:49:18;29.60;53.50
23801;DHT22;12081;48.614;10.226;2023-07-31T12:52:03;29.00;53.70
23801;DHT22;12081;48.614;10.226;2023-07-31T12:54:48;28.40;54.90
23801;DHT22;12081;48.614;10.226;2023-07-31T12:57:32;27.90;56.30
23801;DHT22;12081;48.614;10.226;2023-07-31T13:00:16;27.70;56.20
23801;DHT22;12081;48.614;10.226;2023-07-31T13:03:01;27.80;57.10
23801;DHT22;12081;48.614;10.226;2023-07-31T13:05:45;27.90;57.20
23801;DHT22;12081;48.614;10.226;2023-07-31T13:08:29;27.40;56.90
23801;DHT22;12081;48.614;10.226;2023-07-31T13:11:13;27.20;57.30
23801;DHT22;12081;48.614;10.226;2023-07-31T13:13:57;27.00;57.70
23801;DHT22;12081;48.614;10.226;2023-07-31T13:16:41;26.90;58.40
23801;DHT22;12081;48.614;10.226;2023-07-31T13:19:25;26.60;58.10
23801;DHT22;12081;48.614;10.226;2023-07-31T13:22:09;26.30;60.80
23801;DHT22;12081;48.614;10.226;2023-07-31T13:24:54;25.90;61.80
23801;DHT22;12081;48.614;10.226;2023-07-31T13:27:38;25.70;61.10
23801;DHT22;12081;48.614;10.226;2023-07-31T13:30:22;25.40;61.50
23801;DHT22;12081;48.614;10.226;2023-07-31T13:33:06;25.20;63.50
23801;DHT22;12081;48.614;10.226;2023-07-31T13:35:50;25.20;64.20
23801;DHT22;12081;48.614;10.226;2023-07-31T13:38:34;25.20;66.00
23801;DHT22;12081;48.614;10.226;2023-07-31T13:41:18;25.50;67.30
23801;DHT22;12081;48.614;10.226;2023-07-31T13:44:02;25.60;65.20
23801;DHT22;12081;48.614;10.226;2023-07-31T13:46:46;25.80;66.00
23801;DHT22;12081;48.614;10.226;2023-07-31T13:49:30;25.70;63.30
23801;DHT22;12081;48.614;10.226;2023-07-31T13:52:15;25.60;64.10
23801;DHT22;12081;48.614;10.226;2023-07-31T13:54:59;25.40;65.30
23801;DHT22;12081;48.614;10.226;2023-07-31T13:57:43;25.20;66.90
23801;DHT22;12081;48.614;10.226;2023-07-31T14:00:27;25.60;66.00
23801;DHT22;12081;48.614;10.226;2023-07-31T14:03:12;25.80;63.80
23801;DHT22;12081;48.614;10.226;2023-07-31T14:05:57;26.10;62.40
23801;DHT22;12081;48.614;10.226;2023-07-31T14:08:41;26.30;62.50
23801;DHT22;12081;48.614;10.226;2023-07-31T14:11:26;26.60;61.50
23801;DHT22;12081;48.614;10.226;2023-07-31T14:14:10;26.80;61.10
23801;DHT22;12081;48.614;10.226;2023-07-31T14:16:54;27.10;59.50
23801;DHT22;12081;48.614;10.226;2023-07-31T14:19:38;27.00;59.20
23801;DHT22;12081;48.614;10.226;2023-07-31T14:22:29;27.10;59.70
23801;DHT22;12081;48.614;10.226;2023-07-31T14:25:14;27.00;60.90
23801;DHT22;12081;48.614;10.226;2023-07-31T14:27:58;26.90;59.30
23801;DHT22;12081;48.614;10.226;2023-07-31T14:30:42;28.20;61.40
23801;DHT22;12081;48.614;10.226;2023-07-31T14:33:26;26.70;62.50
23801;DHT22;12081;48.614;10.226;2023-07-31T14:36:10;26.40;61.20
23801;DHT22;12081;48.614;10.226;2023-07-31T14:38:55;26.20;60.90
23801;DHT22;12081;48.614;10.226;2023-07-31T14:41:38;25.90;61.70
23801;DHT22;12081;48.614;10.226;2023-07-31T14:44:23;25.90;64.30
23801;DHT22;12081;48.614;10.226;2023-07-31T14:47:07;25.90;63.10
23801;DHT22;12081;48.614;10.226;2023-07-31T14:49:51;25.70;64.80
23801;DHT22;12081;48.614;10.226;2023-07-31T14:52:36;25.70;65.10
23801;DHT22;12081;48.614;10.226;2023-07-31T14:55:20;25.80;64.20
23801;DHT22;12081;48.614;10.226;2023-07-31T14:58:04;25.80;63.40
23801;DHT22;12081;48.614;10.226;2023-07-31T15:00:48;25.50;63.80
23801;DHT22;12081;48.614;10.226;2023-07-31T15:03:32;25.50;63.70
23801;DHT22;12081;48.614;10.226;2023-07-31T15:06:17;25.50;64.20
23801;DHT22;12081;48.614;10.226;2023-07-31T15:09:01;25.30;66.10
23801;DHT22;12081;48.614;10.226;2023-07-31T15:11:45;25.20;66.10
23801;DHT22;12081;48.614;10.226;2023-07-31T15:14:29;25.10;67.30
23801;DHT22;12081;48.614;10.226;2023-07-31T15:17:15;25.20;65.90
23801;DHT22;12081;48.614;10.226;2023-07-31T15:19:59;25.20;65.90
23801;DHT22;12081;48.614;10.226;2023-07-31T15:22:43;25.20;67.50
23801;DHT22;12081;48.614;10.226;2023-07-31T15:25:27;25.10;68.40
23801;DHT22;12081;48.614;10.226;2023-07-31T15:28:11;24.90;68.00
23801;DHT22;12081;48.614;10.226;2023-07-31T15:30:56;24.50;68.90
23801;DHT22;12081;48.614;10.226;2023-07-31T15:33:40;24.40;68.50
23801;DHT22;12081;48.614;10.226;2023-07-31T15:36:24;24.30;69.10
23801;DHT22;12081;48.614;10.226;2023-07-31T15:39:08;24.20;70.70
23801;DHT22;12081;48.614;10.226;2023-07-31T15:41:52;24.00;69.50
23801;DHT22;12081;48.614;10.226;2023-07-31T15:44:37;23.90;70.70
23801;DHT22;12081;48.614;10.226;2023-07-31T15:47:21;23.80;70.80
23801;DHT22;12081;48.614;10.226;2023-07-31T15:50:05;23.60;71.30
23801;DHT22;12081;48.614;10.226;2023-07-31T15:52:49;23.50;71.50
23801;DHT22;12081;48.614;10.226;2023-07-31T15:55:34;23.40;72.30
23801;DHT22;12081;48.614;10.226;2023-07-31T15:58:17;23.30;72.20
23801;DHT22;12081;48.614;10.226;2023-07-31T16:01:02;23.20;73.00
23801;DHT22;12081;48.614;10.226;2023-07-31T16:03:46;23.30;73.50
23801;DHT22;12081;48.614;10.226;2023-07-31T16:06:30;23.20;74.30
23801;DHT22;12081;48.614;10.226;2023-07-31T16:09:14;23.50;75.20
23801;DHT22;12081;48.614;10.226;2023-07-31T16:11:58;23.20;77.50
23801;DHT22;12081;48.614;10.226;2023-07-31T16:14:42;22.90;78.30
23801;DHT22;12081;48.614;10.226;2023-07-31T16:17:27;22.90;77.00
23801;DHT22;12081;48.614;10.226;2023-07-31T16:20:11;22.80;76.70
23801;DHT22;12081;48.614;10.226;2023-07-31T16:22:56;22.70;76.50
23801;DHT22;12081;48.614;10.226;2023-07-31T16:25:40;22.70;78.00
23801;DHT22;12081;48.614;10.226;2023-07-31T16:28:24;22.60;78.70
23801;DHT22;12081;48.614;10.226;2023-07-31T16:31:08;22.50;79.60
23801;DHT22;12081;48.614;10.226;2023-07-31T16:33:52;22.50;81.40
23801;DHT22;12081;48.614;10.226;2023-07-31T16:36:36;22.50;82.50
23801;DHT22;12081;48.614;10.226;2023-07-31T16:39:20;22.50;82.80
23801;DHT22;12081;48.614;10.226;2023-07-31T16:42:05;22.50;84.10
23801;DHT22;12081;48.614;10.226;2023-07-31T16:44:49;22.50;82.20
23801;DHT22;12081;48.614;10.226;2023-07-31T16:47:33;22.30;83.70
23801;DHT22;12081;48.614;10.226;2023-07-31T16:50:17;22.30;84.00
23801;DHT22;12081;48.614;10.226;2023-07-31T16:53:01;22.40;85.10
23801;DHT22;12081;48.614;10.226;2023-07-31T16:55:45;22.40;84.30
23801;DHT22;12081;48.614;10.226;2023-07-31T16:58:29;22.40;86.20
23801;DHT22;12081;48.614;10.226;2023-07-31T17:01:13;22.50;87.90
23801;DHT22;12081;48.614;10.226;2023-07-31T17:03:58;22.60;88.90
23801;DHT22;12081;48.614;10.226;2023-07-31T17:06:43;22.70;88.40
23801;DHT22;12081;48.614;10.226;2023-07-31T17:09:27;22.60;87.90
23801;DHT22;12081;48.614;10.226;2023-07-31T17:12:12;22.60;85.20
23801;DHT22;12081;48.614;10.226;2023-07-31T17:14:57;22.60;85.80
23801;DHT22;12081;48.614;10.226;2023-07-31T17:17:41;22.50;85.80
23801;DHT22;12081;48.614;10.226;2023-07-31T17:20:25;22.60;85.40
23801;DHT22;12081;48.614;10.226;2023-07-31T17:23:09;22.60;85.80
23801;DHT22;12081;48.614;10.226;2023-07-31T17:25:53;22.60;85.00
23801;DHT22;12081;48.614;10.226;2023-07-31T17:28:37;22.60;84.00
23801;DHT22;12081;48.614;10.226;2023-07-31T17:31:21;22.60;84.00
23801;DHT22;12081;48.614;10.226;2023-07-31T17:34:05;22.60;85.00
23801;DHT22;12081;48.614;10.226;2023-07-31T17:36:49;22.50;86.30
23801;DHT22;12081;48.614;10.226;2023-07-31T17:39:33;22.40;87.40
23801;DHT22;12081;48.614;10.226;2023-07-31T17:42:17;22.30;88.80
23801;DHT22;12081;48.614;10.226;2023-07-31T17:45:02;22.20;90.00
23801;DHT22;12081;48.614;10.226;2023-07-31T17:47:46;22.20;91.40
23801;DHT22;12081;48.614;10.226;2023-07-31T17:50:30;22.20;91.40
23801;DHT22;12081;48.614;10.226;2023-07-31T17:53:14;22.20;91.50
23801;DHT22;12081;48.614;10.226;2023-07-31T17:55:58;21.70;91.90
23801;DHT22;12081;48.614;10.226;2023-07-31T17:58:42;21.70;92.70
23801;DHT22;12081;48.614;10.226;2023-07-31T18:01:26;21.50;92.70
23801;DHT22;12081;48.614;10.226;2023-07-31T18:04:12;21.60;92.30
23801;DHT22;12081;48.614;10.226;2023-07-31T18:06:56;21.60;92.10
23801;DHT22;12081;48.614;10.226;2023-07-31T18:09:40;21.50;92.10
23801;DHT22;12081;48.614;10.226;2023-07-31T18:12:25;21.50;91.10
23801;DHT22;12081;48.614;10.226;2023-07-31T18:15:10;21.40;90.30
23801;DHT22;12081;48.614;10.226;2023-07-31T18:17:54;21.30;90.90
23801;DHT22;12081;48.614;10.226;2023-07-31T18:20:39;21.20;90.30
23801;DHT22;12081;48.614;10.226;2023-07-31T18:23:23;21.20;90.10
23801;DHT22;12081;48.614;10.226;2023-07-31T18:26:07;21.10;90.60
23801;DHT22;12081;48.614;10.226;2023-07-31T18:28:51;21.10;90.90
23801;DHT22;12081;48.614;10.226;2023-07-31T18:31:35;20.90;91.00
23801;DHT22;12081;48.614;10.226;2023-07-31T18:34:20;20.90;91.40
23801;DHT22;12081;48.614;10.226;2023-07-31T18:37:04;20.80;91.80
23801;DHT22;12081;48.614;10.226;2023-07-31T18:39:48;20.80;91.80
23801;DHT22;12081;48.614;10.226;2023-07-31T18:42:32;20.70;92.20
23801;DHT22;12081;48.614;10.226;2023-07-31T18:45:16;20.60;92.50
23801;DHT22;12081;48.614;10.226;2023-07-31T18:48:00;20.60;93.30
23801;DHT22;12081;48.614;10.226;2023-07-31T18:50:45;20.50;93.60
23801;DHT22;12081;48.614;10.226;2023-07-31T18:53:29;21.00;93.80
23801;DHT22;12081;48.614;10.226;2023-07-31T18:56:13;21.50;94.10
23801;DHT22;12081;48.614;10.226;2023-07-31T18:58:57;20.40;94.10
23801;DHT22;12081;48.614;10.226;2023-07-31T19:01:41;21.60;95.00
23801;DHT22;12081;48.614;10.226;2023-07-31T19:04:28;20.30;95.60
23801;DHT22;12081;48.614;10.226;2023-07-31T19:07:12;20.30;95.60
23801;DHT22;12081;48.614;10.226;2023-07-31T19:09:56;20.30;95.80
23801;DHT22;12081;48.614;10.226;2023-07-31T19:12:40;20.10;96.50
23801;DHT22;12081;48.614;10.226;2023-07-31T19:15:24;20.00;96.90
23801;DHT22;12081;48.614;10.226;2023-07-31T19:18:08;20.00;98.60
23801;DHT22;12081;48.614;10.226;2023-07-31T19:20:52;19.90;99.10
23801;DHT22;12081;48.614;10.226;2023-07-31T19:23:38;20.80;99.50
23801;DHT22;12081;48.614;10.226;2023-07-31T19:26:22;20.60;99.90
23801;DHT22;12081;48.614;10.226;2023-07-31T19:29:07;19.70;99.90
23801;DHT22;12081;48.614;10.226;2023-07-31T19:31:51;20.40;99.90
23801;DHT22;12081;48.614;10.226;2023-07-31T19:34:36;19.50;99.90
23801;DHT22;12081;48.614;10.226;2023-07-31T19:37:20;19.50;99.90
23801;DHT22;12081;48.614;10.226;2023-07-31T19:40:04;19.40;99.90
23801;DHT22;12081;48.614;10.226;2023-07-31T19:42:49;19.30;99.90
23801;DHT22;12081;48.614;10.226;2023-07-31T19:45:33;20.30;99.90
23801;DHT22;12081;48.614;10.226;2023-07-31T19:48:18;19.20;99.90
23801;DHT22;12081;48.614;10.226;2023-07-31T19:51:05;19.10;99.90
23801;DHT22;12081;48.614;10.226;2023-07-31T19:53:50;19.00;99.90
23801;DHT22;12081;48.614;10.226;2023-07-31T19:56:34;19.10;99.90
23801;DHT22;12081;48.614;10.226;2023-07-31T19:59:18;19.00;99.90
23801;DHT22;12081;48.614;10.226;2023-07-31T20:02:03;18.90;99.90
23801;DHT22;12081;48.614;10.226;2023-07-31T20:04:47;18.90;99.90
23801;DHT22;12081;48.614;10.226;2023-07-31T20:07:32;18.80;99.90
23801;DHT22;12081;48.614;10.226;2023-07-31T20:10:16;20.00;99.90
23801;DHT22;12081;48.614;10.226;2023-07-31T20:13:00;18.70;99.90
23801;DHT22;12081;48.614;10.226;2023-07-31T20:15:44;18.70;99.90
23801;DHT22;12081;48.614;10.226;2023-07-31T20:18:29;18.60;99.90
23801;DHT22;12081;48.614;10.226;2023-07-31T20:21:13;18.60;99.90
23801;DHT22;12081;48.614;10.226;2023-07-31T20:23:57;18.60;99.90
23801;DHT22;12081;48.614;10.226;2023-07-31T20:26:42;18.70;99.90
23801;DHT22;12081;48.614;10.226;2023-07-31T20:29:26;18.60;99.90
23801;DHT22;12081;48.614;10.226;2023-07-31T20:32:11;18.40;99.90
23801;DHT22;12081;48.614;10.226;2023-07-31T20:34:55;18.30;99.90
23801;DHT22;12081;48.614;10.226;2023-07-31T20:37:40;18.30;99.90
23801;DHT22;12081;48.614;10.226;2023-07-31T20:40:25;18.10;99.90
23801;DHT22;12081;48.614;10.226;2023-07-31T20:43:09;19.30;99.90
23801;DHT22;12081;48.614;10.226;2023-07-31T20:45:59;18.00;99.90
23801;DHT22;12081;48.614;10.226;2023-07-31T20:48:44;17.90;99.90
23801;DHT22;12081;48.614;10.226;2023-07-31T20:51:29;17.90;99.90
23801;DHT22;12081;48.614;10.226;2023-07-31T20:54:14;17.90;99.90
23801;DHT22;12081;48.614;10.226;2023-07-31T20:56:58;17.80;99.90
23801;DHT22;12081;48.614;10.226;2023-07-31T20:59:43;17.70;99.90
23801;DHT22;12081;48.614;10.226;2023-07-31T21:02:27;17.70;99.90
23801;DHT22;12081;48.614;10.226;2023-07-31T21:05:13;17.60;99.90
23801;DHT22;12081;48.614;10.226;2023-07-31T21:07:59;17.60;99.90
23801;DHT22;12081;48.614;10.226;2023-07-31T21:10:43;18.40;99.90
23801;DHT22;12081;48.614;10.226;2023-07-31T21:13:28;17.40;99.90
23801;DHT22;12081;48.614;10.226;2023-07-31T21:16:13;17.40;99.90
23801;DHT22;12081;48.614;10.226;2023-07-31T21:18:58;17.30;99.90
23801;DHT22;12081;48.614;10.226;2023-07-31T21:21:42;17.30;99.90
23801;DHT22;12081;48.614;10.226;2023-07-31T21:24:26;17.10;99.90
23801;DHT22;12081;48.614;10.226;2023-07-31T21:27:11;17.10;99.90
23801;DHT22;12081;48.614;10.226;2023-07-31T21:29:56;17.00;99.90
23801;DHT22;12081;48.614;10.226;2023-07-31T21:32:42;16.90;99.90
23801;DHT22;12081;48.614;10.226;2023-07-31T23:16:15;15.90;99.90
